sensor_id;sensor_type;location;lat;lon;timestamp;pressure;altitude;pressure_sealevel;temperature;humidity
17311;BME280;8773;43.300;0.394;2023-04-02T00:01:23;100160.09;;;9.61;70.30
17311;BME280;8773;43.300;0.394;2023-04-02T00:04:05;100155.59;;;9.52;70.44
17311;BME280;8773;43.300;0.394;2023-04-02T00:06:35;100155.16;;;9.56;70.17
17311;BME280;8773;43.300;0.394;2023-04-02T00:09:23;100155.84;;;9.49;70.51
17311;BME280;8773;43.300;0.394;2023-04-02T00:11:54;100154.31;;;9.46;70.66
17311;BME280;8773;43.300;0.394;2023-04-02T00:14:25;100151.94;;;9.33;71.31
17311;BME280;8773;43.300;0.394;2023-04-02T00:16:54;100160.34;;;9.58;70.29
17311;BME280;8773;43.300;0.394;2023-04-02T00:19:29;100169.91;;;9.60;70.67
17311;BME280;8773;43.300;0.394;2023-04-02T00:21:59;100166.94;;;9.54;70.28
17311;BME280;8773;43.300;0.394;2023-04-02T00:24:29;100168.34;;;9.58;70.00
17311;BME280;8773;43.300;0.394;2023-04-02T00:26:58;100163.72;;;9.60;69.75
17311;BME280;8773;43.300;0.394;2023-04-02T00:29:27;100169.59;;;9.44;70.30
17311;BME280;8773;43.300;0.394;2023-04-02T00:31:57;100161.47;;;9.36;70.68
17311;BME280;8773;43.300;0.394;2023-04-02T00:34:30;100167.06;;;9.33;70.56
17311;BME280;8773;43.300;0.394;2023-04-02T00:36:59;100169.88;;;9.41;70.31
17311;BME280;8773;43.300;0.394;2023-04-02T00:39:30;100173.94;;;9.45;69.79
17311;BME280;8773;43.300;0.394;2023-04-02T00:42:01;100175.19;;;9.22;70.91
17311;BME280;8773;43.300;0.394;2023-04-02T00:44:33;100170.16;;;9.28;71.00
17311;BME280;8773;43.300;0.394;2023-04-02T00:47:11;100168.91;;;9.32;70.88
17311;BME280;8773;43.300;0.394;2023-04-02T00:49:41;100169.03;;;9.40;70.54
17311;BME280;8773;43.300;0.394;2023-04-02T00:52:12;100163.31;;;9.55;70.18
17311;BME280;8773;43.300;0.394;2023-04-02T00:54:44;100169.03;;;9.40;70.57
17311;BME280;8773;43.300;0.394;2023-04-02T00:57:19;100169.75;;;9.52;70.29
17311;BME280;8773;43.300;0.394;2023-04-02T00:59:56;100164.88;;;9.67;69.57
17311;BME280;8773;43.300;0.394;2023-04-02T01:02:27;100162.19;;;9.76;68.60
17311;BME280;8773;43.300;0.394;2023-04-02T01:04:58;100166.66;;;9.86;69.06
17311;BME280;8773;43.300;0.394;2023-04-02T01:07:46;100170.47;;;9.83;69.30
17311;BME280;8773;43.300;0.394;2023-04-02T01:10:42;100171.19;;;9.95;69.37
17311;BME280;8773;43.300;0.394;2023-04-02T01:13:19;100161.50;;;9.94;69.80
17311;BME280;8773;43.300;0.394;2023-04-02T01:15:56;100171.47;;;9.92;69.22
17311;BME280;8773;43.300;0.394;2023-04-02T01:18:35;100166.56;;;9.97;69.06
17311;BME280;8773;43.300;0.394;2023-04-02T01:21:23;100170.91;;;9.88;69.79
17311;BME280;8773;43.300;0.394;2023-04-02T01:24:00;100171.03;;;9.77;70.55
17311;BME280;8773;43.300;0.394;2023-04-02T01:26:42;100171.91;;;9.87;69.97
17311;BME280;8773;43.300;0.394;2023-04-02T01:29:15;100181.41;;;9.61;71.35
17311;BME280;8773;43.300;0.394;2023-04-02T01:31:44;100177.34;;;9.57;71.19
17311;BME280;8773;43.300;0.394;2023-04-02T01:34:15;100175.81;;;9.64;71.05
17311;BME280;8773;43.300;0.394;2023-04-02T01:36:56;100172.47;;;9.91;70.39
17311;BME280;8773;43.300;0.394;2023-04-02T01:39:38;100178.63;;;10.01;70.48
17311;BME280;8773;43.300;0.394;2023-04-02T01:42:13;100176.53;;;10.14;70.07
17311;BME280;8773;43.300;0.394;2023-04-02T01:44:48;100173.31;;;10.11;70.63
17311;BME280;8773;43.300;0.394;2023-04-02T01:47:18;100167.53;;;10.05;70.73
17311;BME280;8773;43.300;0.394;2023-04-02T01:49:46;100169.66;;;10.02;71.67
17311;BME280;8773;43.300;0.394;2023-04-02T01:52:17;100172.44;;;9.71;72.44
17311;BME280;8773;43.300;0.394;2023-04-02T01:54:46;100171.19;;;9.95;72.35
17311;BME280;8773;43.300;0.394;2023-04-02T01:57:14;100179.06;;;10.06;72.09
17311;BME280;8773;43.300;0.394;2023-04-02T01:59:43;100178.50;;;10.12;71.61
17311;BME280;8773;43.300;0.394;2023-04-02T02:02:13;100158.97;;;10.12;71.03
17311;BME280;8773;43.300;0.394;2023-04-02T02:04:41;100183.13;;;10.20;70.85
17311;BME280;8773;43.300;0.394;2023-04-02T02:07:13;100185.66;;;10.12;72.00
17311;BME280;8773;43.300;0.394;2023-04-02T02:09:43;100182.81;;;10.32;71.39
17311;BME280;8773;43.300;0.394;2023-04-02T02:12:13;100182.94;;;10.31;71.97
17311;BME280;8773;43.300;0.394;2023-04-02T02:14:45;100182.97;;;10.21;71.31
17311;BME280;8773;43.300;0.394;2023-04-02T02:17:17;100181.88;;;10.14;72.28
17311;BME280;8773;43.300;0.394;2023-04-02T02:19:49;100178.78;;;10.09;72.51
17311;BME280;8773;43.300;0.394;2023-04-02T02:22:23;100176.94;;;10.19;72.53
17311;BME280;8773;43.300;0.394;2023-04-02T02:24:54;100177.09;;;10.18;71.56
17311;BME280;8773;43.300;0.394;2023-04-02T02:27:52;100172.84;;;10.25;71.39
17311;BME280;8773;43.300;0.394;2023-04-02T02:30:25;100174.13;;;10.21;71.88
17311;BME280;8773;43.300;0.394;2023-04-02T02:32:59;100173.56;;;10.17;71.84
17311;BME280;8773;43.300;0.394;2023-04-02T02:35:33;100176.66;;;10.22;72.08
17311;BME280;8773;43.300;0.394;2023-04-02T02:38:24;100178.72;;;10.28;72.53
17311;BME280;8773;43.300;0.394;2023-04-02T02:40:58;100177.34;;;10.24;71.87
17311;BME280;8773;43.300;0.394;2023-04-02T02:43:28;100180.84;;;10.34;71.66
17311;BME280;8773;43.300;0.394;2023-04-02T02:45:57;100185.63;;;10.31;72.00
17311;BME280;8773;43.300;0.394;2023-04-02T02:48:33;100190.09;;;10.30;71.80
17311;BME280;8773;43.300;0.394;2023-04-02T02:51:06;100189.13;;;10.31;71.73
17311;BME280;8773;43.300;0.394;2023-04-02T02:53:45;100183.22;;;10.37;71.79
17311;BME280;8773;43.300;0.394;2023-04-02T02:56:15;100194.03;;;10.46;72.42
17311;BME280;8773;43.300;0.394;2023-04-02T02:58:43;100187.69;;;10.47;71.93
17311;BME280;8773;43.300;0.394;2023-04-02T03:01:11;100187.41;;;10.50;71.52
17311;BME280;8773;43.300;0.394;2023-04-02T03:03:41;100186.00;;;10.55;71.89
17311;BME280;8773;43.300;0.394;2023-04-02T03:06:13;100193.59;;;10.50;72.17
17311;BME280;8773;43.300;0.394;2023-04-02T03:08:45;100192.47;;;10.53;71.44
17311;BME280;8773;43.300;0.394;2023-04-02T03:11:18;100194.88;;;10.36;72.81
17311;BME280;8773;43.300;0.394;2023-04-02T03:13:51;100198.53;;;10.35;71.54
17311;BME280;8773;43.300;0.394;2023-04-02T03:16:24;100196.28;;;10.40;71.86
17311;BME280;8773;43.300;0.394;2023-04-02T03:18:58;100201.63;;;10.40;71.77
17311;BME280;8773;43.300;0.394;2023-04-02T03:21:32;100192.06;;;10.38;71.22
17311;BME280;8773;43.300;0.394;2023-04-02T03:24:08;100199.09;;;10.39;71.30
17311;BME280;8773;43.300;0.394;2023-04-02T03:26:40;100204.84;;;10.25;71.81
17311;BME280;8773;43.300;0.394;2023-04-02T03:29:14;100203.34;;;10.22;72.32
17311;BME280;8773;43.300;0.394;2023-04-02T03:31:46;100214.28;;;10.29;72.61
17311;BME280;8773;43.300;0.394;2023-04-02T03:34:19;100204.34;;;10.21;72.31
17311;BME280;8773;43.300;0.394;2023-04-02T03:36:53;100202.78;;;10.19;72.62
17311;BME280;8773;43.300;0.394;2023-04-02T03:39:29;100207.28;;;10.18;73.01
17311;BME280;8773;43.300;0.394;2023-04-02T03:42:04;100209.81;;;10.20;72.48
17311;BME280;8773;43.300;0.394;2023-04-02T03:44:37;100211.75;;;10.27;72.92
17311;BME280;8773;43.300;0.394;2023-04-02T03:47:11;100216.22;;;10.36;72.88
17311;BME280;8773;43.300;0.394;2023-04-02T03:49:45;100224.09;;;10.48;72.55
17311;BME280;8773;43.300;0.394;2023-04-02T03:52:19;100218.75;;;10.48;72.64
17311;BME280;8773;43.300;0.394;2023-04-02T03:54:49;100217.50;;;10.42;72.35
17311;BME280;8773;43.300;0.394;2023-04-02T03:57:25;100220.16;;;10.52;72.26
17311;BME280;8773;43.300;0.394;2023-04-02T03:59:58;100215.09;;;10.49;71.51
17311;BME280;8773;43.300;0.394;2023-04-02T04:02:37;100221.13;;;10.60;70.99
17311;BME280;8773;43.300;0.394;2023-04-02T04:05:18;100229.97;;;10.61;71.82
17311;BME280;8773;43.300;0.394;2023-04-02T04:07:51;100224.22;;;10.56;71.95
17311;BME280;8773;43.300;0.394;2023-04-02T04:10:23;100222.53;;;10.55;71.63
17311;BME280;8773;43.300;0.394;2023-04-02T04:12:55;100229.69;;;10.64;71.56
17311;BME280;8773;43.300;0.394;2023-04-02T04:15:30;100228.03;;;10.43;72.34
17311;BME280;8773;43.300;0.394;2023-04-02T04:18:04;100226.06;;;10.46;72.80
17311;BME280;8773;43.300;0.394;2023-04-02T04:20:42;100238.88;;;10.23;72.80
17311;BME280;8773;43.300;0.394;2023-04-02T04:23:17;100241.00;;;10.19;73.23
17311;BME280;8773;43.300;0.394;2023-04-02T04:25:56;100233.13;;;10.08;73.76
17311;BME280;8773;43.300;0.394;2023-04-02T04:28:29;100239.44;;;10.17;73.73
17311;BME280;8773;43.300;0.394;2023-04-02T04:31:12;100239.56;;;10.34;72.22
17311;BME280;8773;43.300;0.394;2023-04-02T04:33:46;100232.81;;;10.40;72.37
17311;BME280;8773;43.300;0.394;2023-04-02T04:36:24;100235.47;;;10.50;72.46
17311;BME280;8773;43.300;0.394;2023-04-02T04:38:57;100229.00;;;10.42;72.17
17311;BME280;8773;43.300;0.394;2023-04-02T04:41:28;100238.13;;;10.50;72.12
17311;BME280;8773;43.300;0.394;2023-04-02T04:44:03;100236.44;;;10.49;71.97
17311;BME280;8773;43.300;0.394;2023-04-02T04:46:37;100236.59;;;10.57;71.43
17311;BME280;8773;43.300;0.394;2023-04-02T04:49:11;100236.88;;;10.44;72.38
17311;BME280;8773;43.300;0.394;2023-04-02T04:51:47;100237.56;;;10.56;72.01
17311;BME280;8773;43.300;0.394;2023-04-02T04:54:18;100240.53;;;10.53;72.15
17311;BME280;8773;43.300;0.394;2023-04-02T04:56:49;100239.09;;;10.58;71.98
17311;BME280;8773;43.300;0.394;2023-04-02T04:59:22;100236.59;;;10.47;72.40
17311;BME280;8773;43.300;0.394;2023-04-02T05:01:56;100233.91;;;10.57;71.77
17311;BME280;8773;43.300;0.394;2023-04-02T05:04:31;100246.56;;;10.26;71.86
17311;BME280;8773;43.300;0.394;2023-04-02T05:07:06;100241.00;;;10.19;72.54
17311;BME280;8773;43.300;0.394;2023-04-02T05:09:38;100243.38;;;10.22;72.93
17311;BME280;8773;43.300;0.394;2023-04-02T05:12:16;100236.19;;;10.32;72.23
17311;BME280;8773;43.300;0.394;2023-04-02T05:14:48;100237.72;;;10.45;72.51
17311;BME280;8773;43.300;0.394;2023-04-02T05:17:21;100237.03;;;10.42;72.59
17311;BME280;8773;43.300;0.394;2023-04-02T05:19:55;100242.06;;;10.46;72.48
17311;BME280;8773;43.300;0.394;2023-04-02T05:22:34;100240.53;;;10.33;72.65
17311;BME280;8773;43.300;0.394;2023-04-02T05:25:15;100248.13;;;10.48;72.54
17311;BME280;8773;43.300;0.394;2023-04-02T05:27:47;100252.63;;;10.37;72.79
17311;BME280;8773;43.300;0.394;2023-04-02T05:30:43;100250.78;;;10.28;73.08
17311;BME280;8773;43.300;0.394;2023-04-02T05:33:20;100241.69;;;10.21;73.46
17311;BME280;8773;43.300;0.394;2023-04-02T05:35:55;100256.72;;;10.22;73.59
17311;BME280;8773;43.300;0.394;2023-04-02T05:38:27;100262.63;;;10.16;73.85
17311;BME280;8773;43.300;0.394;2023-04-02T05:41:02;100262.59;;;10.26;73.54
17311;BME280;8773;43.300;0.394;2023-04-02T05:43:32;100262.59;;;10.26;73.93
17311;BME280;8773;43.300;0.394;2023-04-02T05:46:06;100266.53;;;10.31;72.90
17311;BME280;8773;43.300;0.394;2023-04-02T05:48:42;100266.09;;;10.26;73.65
17311;BME280;8773;43.300;0.394;2023-04-02T05:51:17;100263.84;;;10.31;73.67
17311;BME280;8773;43.300;0.394;2023-04-02T05:53:52;100272.84;;;10.30;73.02
17311;BME280;8773;43.300;0.394;2023-04-02T05:56:25;100269.47;;;10.28;73.62
17311;BME280;8773;43.300;0.394;2023-04-02T05:59:01;100275.50;;;10.30;72.82
17311;BME280;8773;43.300;0.394;2023-04-02T06:01:38;100277.19;;;10.31;72.81
17311;BME280;8773;43.300;0.394;2023-04-02T06:04:16;100273.69;;;10.40;73.68
17311;BME280;8773;43.300;0.394;2023-04-02T06:06:57;100276.34;;;10.31;72.86
17311;BME280;8773;43.300;0.394;2023-04-02T06:09:34;100281.00;;;10.48;73.12
17311;BME280;8773;43.300;0.394;2023-04-02T06:12:13;100284.09;;;10.53;73.36
17311;BME280;8773;43.300;0.394;2023-04-02T06:14:42;100274.38;;;10.62;72.51
17311;BME280;8773;43.300;0.394;2023-04-02T06:17:13;100286.34;;;10.48;73.07
17311;BME280;8773;43.300;0.394;2023-04-02T06:19:42;100286.59;;;10.64;73.10
17311;BME280;8773;43.300;0.394;2023-04-02T06:22:19;100294.84;;;10.71;72.67
17311;BME280;8773;43.300;0.394;2023-04-02T06:24:54;100292.03;;;10.72;71.98
17311;BME280;8773;43.300;0.394;2023-04-02T06:27:25;100302.88;;;10.71;72.93
17311;BME280;8773;43.300;0.394;2023-04-02T06:29:57;100285.28;;;10.78;72.67
17311;BME280;8773;43.300;0.394;2023-04-02T06:32:30;100294.41;;;10.85;72.23
17311;BME280;8773;43.300;0.394;2023-04-02T06:34:58;100294.53;;;11.03;71.14
17311;BME280;8773;43.300;0.394;2023-04-02T06:37:30;100299.97;;;11.11;70.94
17311;BME280;8773;43.300;0.394;2023-04-02T06:40:02;100295.09;;;11.06;71.90
17311;BME280;8773;43.300;0.394;2023-04-02T06:42:33;100298.00;;;11.13;71.26
17311;BME280;8773;43.300;0.394;2023-04-02T06:45:03;100302.91;;;11.18;71.12
17311;BME280;8773;43.300;0.394;2023-04-02T06:47:34;100304.28;;;11.22;71.68
17311;BME280;8773;43.300;0.394;2023-04-02T06:50:08;100306.81;;;11.33;70.93
17311;BME280;8773;43.300;0.394;2023-04-02T06:52:46;100314.69;;;11.34;70.76
17311;BME280;8773;43.300;0.394;2023-04-02T06:55:30;100316.97;;;11.20;70.72
17311;BME280;8773;43.300;0.394;2023-04-02T06:58:00;100312.19;;;11.14;71.28
17311;BME280;8773;43.300;0.394;2023-04-02T07:00:33;100317.25;;;11.17;71.45
17311;BME280;8773;43.300;0.394;2023-04-02T07:03:06;100322.84;;;11.23;70.99
17311;BME280;8773;43.300;0.394;2023-04-02T07:05:34;100324.28;;;11.18;71.17
17311;BME280;8773;43.300;0.394;2023-04-02T07:08:04;100328.94;;;11.16;72.11
17311;BME280;8773;43.300;0.394;2023-04-02T07:10:34;100329.47;;;11.19;71.27
17311;BME280;8773;43.300;0.394;2023-04-02T07:13:05;100339.81;;;11.04;72.08
17311;BME280;8773;43.300;0.394;2023-04-02T07:15:34;100344.25;;;11.23;71.72
17311;BME280;8773;43.300;0.394;2023-04-02T07:18:04;100341.59;;;11.14;72.30
17311;BME280;8773;43.300;0.394;2023-04-02T07:20:33;100348.91;;;11.12;72.29
17311;BME280;8773;43.300;0.394;2023-04-02T07:23:03;100352.19;;;10.96;72.50
17311;BME280;8773;43.300;0.394;2023-04-02T07:25:31;100361.19;;;11.04;72.69
17311;BME280;8773;43.300;0.394;2023-04-02T07:28:01;100363.88;;;10.85;73.24
17311;BME280;8773;43.300;0.394;2023-04-02T07:30:29;100370.91;;;10.76;74.00
17311;BME280;8773;43.300;0.394;2023-04-02T07:32:57;100363.44;;;10.90;74.31
17311;BME280;8773;43.300;0.394;2023-04-02T07:35:25;100374.56;;;11.04;73.98
17311;BME280;8773;43.300;0.394;2023-04-02T07:37:53;100374.13;;;10.99;73.46
17311;BME280;8773;43.300;0.394;2023-04-02T07:40:22;100373.50;;;11.25;73.27
17311;BME280;8773;43.300;0.394;2023-04-02T07:42:50;100384.75;;;11.38;71.46
17311;BME280;8773;43.300;0.394;2023-04-02T07:45:20;100392.63;;;11.49;71.39
17311;BME280;8773;43.300;0.394;2023-04-02T07:47:48;100389.59;;;11.62;71.01
17311;BME280;8773;43.300;0.394;2023-04-02T07:50:16;100397.16;;;11.39;71.51
17311;BME280;8773;43.300;0.394;2023-04-02T07:52:44;100406.72;;;11.32;73.08
17311;BME280;8773;43.300;0.394;2023-04-02T07:55:13;100406.72;;;11.41;72.75
17311;BME280;8773;43.300;0.394;2023-04-02T07:57:47;100422.19;;;11.85;71.51
17311;BME280;8773;43.300;0.394;2023-04-02T08:00:17;100414.00;;;12.14;70.07
17311;BME280;8773;43.300;0.394;2023-04-02T08:02:47;100417.13;;;12.09;70.54
17311;BME280;8773;43.300;0.394;2023-04-02T08:05:16;100426.72;;;12.02;70.33
17311;BME280;8773;43.300;0.394;2023-04-02T08:07:51;100436.53;;;11.84;70.52
17311;BME280;8773;43.300;0.394;2023-04-02T08:10:19;100427.13;;;11.80;70.46
17311;BME280;8773;43.300;0.394;2023-04-02T08:12:48;100419.69;;;12.01;70.54
17311;BME280;8773;43.300;0.394;2023-04-02T08:15:16;100432.38;;;12.26;69.15
17311;BME280;8773;43.300;0.394;2023-04-02T08:17:45;100439.91;;;12.13;68.86
17311;BME280;8773;43.300;0.394;2023-04-02T08:20:16;100442.25;;;11.98;70.00
17311;BME280;8773;43.300;0.394;2023-04-02T08:22:44;100442.59;;;11.86;70.87
17311;BME280;8773;43.300;0.394;2023-04-02T08:25:13;100444.69;;;11.92;70.16
17311;BME280;8773;43.300;0.394;2023-04-02T08:27:41;100447.13;;;11.75;71.19
17311;BME280;8773;43.300;0.394;2023-04-02T08:30:11;100451.25;;;11.60;71.63
17311;BME280;8773;43.300;0.394;2023-04-02T08:32:39;100456.47;;;11.62;72.11
17311;BME280;8773;43.300;0.394;2023-04-02T08:35:08;100453.34;;;11.66;71.73
17311;BME280;8773;43.300;0.394;2023-04-02T08:37:38;100453.78;;;11.62;71.05
17311;BME280;8773;43.300;0.394;2023-04-02T08:40:17;100462.03;;;11.88;70.70
17311;BME280;8773;43.300;0.394;2023-04-02T08:42:56;100463.97;;;11.95;69.84
17311;BME280;8773;43.300;0.394;2023-04-02T08:45:35;100466.13;;;11.82;71.14
17311;BME280;8773;43.300;0.394;2023-04-02T08:48:08;100477.56;;;11.74;70.17
17311;BME280;8773;43.300;0.394;2023-04-02T08:50:40;100467.72;;;12.02;69.80
17311;BME280;8773;43.300;0.394;2023-04-02T08:53:13;100468.09;;;12.17;69.36
17311;BME280;8773;43.300;0.394;2023-04-02T08:55:48;100474.50;;;11.97;70.25
17311;BME280;8773;43.300;0.394;2023-04-02T08:58:28;100486.56;;;12.11;69.22
17311;BME280;8773;43.300;0.394;2023-04-02T09:01:01;100494.47;;;12.02;70.29
17311;BME280;8773;43.300;0.394;2023-04-02T09:03:34;100482.06;;;12.11;69.62
17311;BME280;8773;43.300;0.394;2023-04-02T09:06:04;100487.88;;;12.34;68.99
17311;BME280;8773;43.300;0.394;2023-04-02T09:08:38;100489.19;;;12.48;67.90
17311;BME280;8773;43.300;0.394;2023-04-02T09:11:09;100488.34;;;12.47;68.25
17311;BME280;8773;43.300;0.394;2023-04-02T09:13:44;100497.78;;;12.79;66.28
17311;BME280;8773;43.300;0.394;2023-04-02T09:16:15;100508.69;;;13.13;65.25
17311;BME280;8773;43.300;0.394;2023-04-02T09:18:48;100508.50;;;13.32;65.16
17311;BME280;8773;43.300;0.394;2023-04-02T09:21:25;100504.03;;;13.40;65.17
17311;BME280;8773;43.300;0.394;2023-04-02T09:23:57;100501.50;;;13.39;64.88
17311;BME280;8773;43.300;0.394;2023-04-02T09:26:27;100509.25;;;13.42;64.86
17311;BME280;8773;43.300;0.394;2023-04-02T09:29:01;100498.41;;;13.26;65.13
17311;BME280;8773;43.300;0.394;2023-04-02T09:31:39;100507.03;;;13.37;66.35
17311;BME280;8773;43.300;0.394;2023-04-02T09:34:26;100507.88;;;13.38;65.65
17311;BME280;8773;43.300;0.394;2023-04-02T09:36:55;100500.31;;;13.77;65.12
17311;BME280;8773;43.300;0.394;2023-04-02T09:39:25;100502.38;;;14.09;63.76
17311;BME280;8773;43.300;0.394;2023-04-02T09:41:53;100493.16;;;14.62;62.59
17311;BME280;8773;43.300;0.394;2023-04-02T09:44:32;100504.22;;;14.59;61.61
17311;BME280;8773;43.300;0.394;2023-04-02T09:47:01;100508.56;;;14.10;63.48
17311;BME280;8773;43.300;0.394;2023-04-02T09:49:31;100513.78;;;13.85;60.06
17311;BME280;8773;43.300;0.394;2023-04-02T09:52:25;100498.91;;;14.25;57.91
17311;BME280;8773;43.300;0.394;2023-04-02T09:55:19;100500.88;;;14.65;58.55
17311;BME280;8773;43.300;0.394;2023-04-02T09:57:49;100500.66;;;14.84;57.98
17311;BME280;8773;43.300;0.394;2023-04-02T10:00:20;100498.63;;;15.02;57.11
17311;BME280;8773;43.300;0.394;2023-04-02T10:03:01;100488.47;;;14.72;56.84
17311;BME280;8773;43.300;0.394;2023-04-02T10:05:31;100502.50;;;14.42;57.13
17311;BME280;8773;43.300;0.394;2023-04-02T10:08:15;100506.56;;;14.46;57.94
17311;BME280;8773;43.300;0.394;2023-04-02T10:10:47;100508.97;;;14.73;56.67
17311;BME280;8773;43.300;0.394;2023-04-02T10:13:21;100503.69;;;14.97;57.00
17311;BME280;8773;43.300;0.394;2023-04-02T10:15:55;100516.16;;;15.31;55.66
17311;BME280;8773;43.300;0.394;2023-04-02T10:18:42;100501.03;;;15.22;54.73
17311;BME280;8773;43.300;0.394;2023-04-02T10:21:15;100506.25;;;15.39;54.09
17311;BME280;8773;43.300;0.394;2023-04-02T10:23:44;100507.09;;;15.81;54.67
17311;BME280;8773;43.300;0.394;2023-04-02T10:26:32;100510.78;;;15.80;53.75
17311;BME280;8773;43.300;0.394;2023-04-02T10:29:26;100503.97;;;16.08;53.70
17311;BME280;8773;43.300;0.394;2023-04-02T10:32:03;100501.78;;;16.12;53.93
17311;BME280;8773;43.300;0.394;2023-04-02T10:34:39;100505.72;;;16.40;53.29
17311;BME280;8773;43.300;0.394;2023-04-02T10:40:09;100508.59;;;15.83;54.12
17311;BME280;8773;43.300;0.394;2023-04-02T10:42:44;100516.66;;;15.67;55.33
17311;BME280;8773;43.300;0.394;2023-04-02T10:45:23;100518.16;;;15.13;56.81
17311;BME280;8773;43.300;0.394;2023-04-02T10:48:02;100509.09;;;15.14;55.93
17311;BME280;8773;43.300;0.394;2023-04-02T10:50:39;100509.94;;;15.14;54.62
17311;BME280;8773;43.300;0.394;2023-04-02T10:53:13;100513.09;;;15.01;54.66
17311;BME280;8773;43.300;0.394;2023-04-02T10:55:44;100505.91;;;15.34;53.84
17311;BME280;8773;43.300;0.394;2023-04-02T10:58:21;100510.25;;;15.44;51.83
17311;BME280;8773;43.300;0.394;2023-04-02T11:00:52;100507.09;;;15.32;52.19
17311;BME280;8773;43.300;0.394;2023-04-02T11:03:29;100510.44;;;15.18;53.15
17311;BME280;8773;43.300;0.394;2023-04-02T11:06:01;100510.44;;;15.18;53.93
17311;BME280;8773;43.300;0.394;2023-04-02T11:08:38;100508.25;;;15.46;51.83
17311;BME280;8773;43.300;0.394;2023-04-02T11:11:11;100504.06;;;15.27;51.24
17311;BME280;8773;43.300;0.394;2023-04-02T11:13:49;100507.72;;;15.10;51.57
17311;BME280;8773;43.300;0.394;2023-04-02T11:16:19;100506.03;;;15.00;52.32
17311;BME280;8773;43.300;0.394;2023-04-02T11:19:20;100498.50;;;15.20;52.21
17311;BME280;8773;43.300;0.394;2023-04-02T11:21:50;100497.16;;;15.16;54.21
17311;BME280;8773;43.300;0.394;2023-04-02T11:24:34;100489.72;;;15.67;53.05
17311;BME280;8773;43.300;0.394;2023-04-02T11:27:06;100491.81;;;16.20;52.60
17311;BME280;8773;43.300;0.394;2023-04-02T11:29:37;100483.97;;;16.42;52.33
17311;BME280;8773;43.300;0.394;2023-04-02T11:35:26;100475.47;;;17.15;50.30
17311;BME280;8773;43.300;0.394;2023-04-02T11:37:56;100477.69;;;17.11;49.37
17311;BME280;8773;43.300;0.394;2023-04-02T11:40:43;100469.47;;;16.43;50.69
17311;BME280;8773;43.300;0.394;2023-04-02T11:43:47;100479.38;;;16.11;52.23
17311;BME280;8773;43.300;0.394;2023-04-02T11:46:39;100483.63;;;16.05;51.17
17311;BME280;8773;43.300;0.394;2023-04-02T11:52:20;100493.28;;;15.76;53.20
17311;BME280;8773;43.300;0.394;2023-04-02T11:55:00;100509.44;;;15.27;55.04
17311;BME280;8773;43.300;0.394;2023-04-02T11:57:44;100528.09;;;14.62;57.06
17311;BME280;8773;43.300;0.394;2023-04-02T12:00:47;100540.28;;;13.45;58.04
17311;BME280;8773;43.300;0.394;2023-04-02T12:03:41;100540.69;;;13.14;57.49
17311;BME280;8773;43.300;0.394;2023-04-02T12:06:19;100534.31;;;13.33;58.19
17311;BME280;8773;43.300;0.394;2023-04-02T12:08:59;100539.53;;;13.52;57.23
17311;BME280;8773;43.300;0.394;2023-04-02T12:11:32;100533.16;;;13.97;59.18
17311;BME280;8773;43.300;0.394;2023-04-02T12:14:06;100528.25;;;14.18;58.72
17311;BME280;8773;43.300;0.394;2023-04-02T12:16:54;100531.50;;;14.72;59.32
17311;BME280;8773;43.300;0.394;2023-04-02T12:19:23;100528.38;;;15.01;57.15
17311;BME280;8773;43.300;0.394;2023-04-02T12:21:52;100521.84;;;15.12;57.42
17311;BME280;8773;43.300;0.394;2023-04-02T12:24:23;100509.41;;;15.43;57.03
17311;BME280;8773;43.300;0.394;2023-04-02T12:27:06;100503.34;;;15.73;55.57
17311;BME280;8773;43.300;0.394;2023-04-02T12:29:34;100501.19;;;15.85;53.28
17311;BME280;8773;43.300;0.394;2023-04-02T12:32:24;100500.81;;;15.96;53.78
17311;BME280;8773;43.300;0.394;2023-04-02T12:34:57;100495.94;;;15.92;52.69
17311;BME280;8773;43.300;0.394;2023-04-02T12:37:28;100508.78;;;15.82;53.58
17311;BME280;8773;43.300;0.394;2023-04-02T12:39:58;100503.50;;;16.44;53.61
17311;BME280;8773;43.300;0.394;2023-04-02T12:42:30;100496.13;;;16.37;52.25
17311;BME280;8773;43.300;0.394;2023-04-02T12:44:59;100502.88;;;16.33;51.80
17311;BME280;8773;43.300;0.394;2023-04-02T12:47:27;100502.94;;;16.17;52.06
17311;BME280;8773;43.300;0.394;2023-04-02T12:49:58;100510.28;;;15.76;51.45
17311;BME280;8773;43.300;0.394;2023-04-02T12:52:28;100503.66;;;15.95;51.35
17311;BME280;8773;43.300;0.394;2023-04-02T12:54:58;100498.84;;;15.82;49.69
17311;BME280;8773;43.300;0.394;2023-04-02T12:57:32;100494.91;;;16.01;51.85
17311;BME280;8773;43.300;0.394;2023-04-02T13:00:31;100494.34;;;16.22;51.78
17311;BME280;8773;43.300;0.394;2023-04-02T13:03:14;100499.28;;;16.02;50.13
17311;BME280;8773;43.300;0.394;2023-04-02T13:05:46;100485.78;;;16.10;49.61
17311;BME280;8773;43.300;0.394;2023-04-02T13:08:21;100496.47;;;15.79;51.86
17311;BME280;8773;43.300;0.394;2023-04-02T13:10:54;100494.28;;;15.83;50.70
17311;BME280;8773;43.300;0.394;2023-04-02T13:13:26;100484.50;;;15.73;50.90
17311;BME280;8773;43.300;0.394;2023-04-02T13:16:03;100495.31;;;15.25;52.58
17311;BME280;8773;43.300;0.394;2023-04-02T13:18:34;100485.72;;;15.14;51.99
17311;BME280;8773;43.300;0.394;2023-04-02T13:21:04;100486.91;;;14.95;53.09
17311;BME280;8773;43.300;0.394;2023-04-02T13:23:35;100492.09;;;15.13;54.32
17311;BME280;8773;43.300;0.394;2023-04-02T13:26:17;100512.09;;;15.02;54.49
17311;BME280;8773;43.300;0.394;2023-04-02T13:28:58;100518.84;;;14.64;56.47
17311;BME280;8773;43.300;0.394;2023-04-02T13:31:29;100522.19;;;14.16;58.89
17311;BME280;8773;43.300;0.394;2023-04-02T13:33:58;100524.06;;;13.90;59.49
17311;BME280;8773;43.300;0.394;2023-04-02T13:36:26;100523.47;;;13.78;60.23
17311;BME280;8773;43.300;0.394;2023-04-02T13:38:55;100514.06;;;14.00;59.63
17311;BME280;8773;43.300;0.394;2023-04-02T13:41:24;100500.97;;;14.39;59.15
17311;BME280;8773;43.300;0.394;2023-04-02T13:43:53;100508.53;;;14.35;59.29
17311;BME280;8773;43.300;0.394;2023-04-02T13:46:24;100490.63;;;14.52;60.21
17311;BME280;8773;43.300;0.394;2023-04-02T13:48:55;100489.47;;;14.63;59.70